アトランタ の空港の天気 - METARとTAF

ハーツフィールド・ジャクソン・アトランタ国際空港 ( KATL / ATL ) - アメリカ ジョージア州アトランタ
飛行場実況気象(Metar)
観測時間06/25 08:52 EDT (06/25 12:52 UTC)
風向・風速西南西 2m/s
視程10km以上
天気現象
全天の4割程度の雲 雲底高度 7620m
気温28.3℃
湿度67%
気圧1018.1hPa
METARKATL 251252Z 25004KT 10SM SCT250 28/22 A3010 RMK AO2 SLP181 T02830217
過去の天気等 Google飛行場航空写真 Wunderground天気予報

過去48時間のMETAR

飛行場予報(TAF)
発表時間: 6/25 07:31 EDT (6/25 11:31 UTC)
予報対象時間: 25日8時 EDT ~ 26日14時 EDT
風向・風速西 2m/s
視程10km以上
全天の4割程度の雲 雲底高度 7620m
25日14時 EDT から
風向・風速西 3m/s
視程10km以上
天気現象周辺でしゅう雨
全天の8割程度の雲 雲底高度 1220m
25日22時 EDT から
風向・風速西北西 3m/s
視程10km以上
全天の8割程度の雲 雲底高度 7620m
26日5時 EDT から
風向・風速北西 1m/s
視程10km以上
全天の4割程度の雲 雲底高度 7620m
26日12時 EDT から
風向・風速北北西 3m/s
視程10km以上
全天の4割程度の雲 雲底高度 6100m
KATL 251131Z 2512/2618 27004KT P6SM SCT250
FM251800 27006KT P6SM VCSH BKN040
FM260200 29005KT P6SM BKN250
FM260900 31002KT P6SM SCT250
FM261600 34006KT P6SM SCT200